Time;durP1;ratioP1;P1;durP2;ratioP2;P2;SDS_P1;SDS_P2;PMS_P1;PMS_P2;Temp;Humidity;BMP_temperature;BMP_pressure;BME280_temperature;BME280_humidity;BME280_pressure;Samples;Min_cycle;Max_cycle;Signal;HPM_P1;HPM_P2
2021/12/19 00:00:15;;;;;;;3.90;3.50;;;;;;;;;;5093668;28;20227;-80
2021/12/19 00:03:01;;;;;;;6.50;4.27;;;;;;;;;;5093556;28;20196;-81
2021/12/19 00:08:43;;;;;;;4.07;3.57;;;;;;;;;;5092858;28;20353;-80
2021/12/19 00:11:10;;;;;;;4.27;3.70;;;;;;;;;;5093217;28;20189;-81
2021/12/19 00:13:40;;;;;;;5.13;4.37;;;;;;;;;;5093679;28;20269;-81
2021/12/19 00:16:07;;;;;;;3.93;3.37;;;;;;;;;;5093276;28;20207;-81
2021/12/19 00:18:35;;;;;;;3.37;3.07;;;;;;;;;;5093347;28;20204;-81
2021/12/19 00:21:06;;;;;;;3.50;3.20;;;;;;;;;;5093768;28;20227;-81
2021/12/19 00:23:34;;;;;;;3.30;2.50;;;;;;;;;;5093225;28;20196;-81
2021/12/19 00:26:01;;;;;;;3.73;3.20;;;;;;;;;;5092984;28;20226;-81
2021/12/19 00:28:28;;;;;;;2.60;2.40;;;;;;;;;;5092954;28;20197;-81
2021/12/19 00:30:55;;;;;;;2.57;2.37;;;;;;;;;;5092798;28;20623;-80
2021/12/19 00:33:23;;;;;;;4.07;3.00;;;;;;;;;;5093016;28;20329;-81
2021/12/19 00:35:50;;;;;;;2.93;2.60;;;;;;;;;;5093013;28;20200;-81
2021/12/19 00:38:19;;;;;;;3.87;2.43;;;;;;;;;;5093045;28;20208;-81
2021/12/19 00:40:46;;;;;;;2.97;2.57;;;;;;;;;;5093243;28;20200;-81
2021/12/19 00:43:23;;;;;;;3.77;2.67;;;;;;;;;;5092983;28;20249;-81
2021/12/19 00:45:52;;;;;;;2.70;2.40;;;;;;;;;;5092563;28;20337;-82
2021/12/19 00:48:19;;;;;;;2.20;2.00;;;;;;;;;;5092842;28;20253;-81
2021/12/19 00:50:47;;;;;;;2.20;1.97;;;;;;;;;;5092503;28;20676;-80
2021/12/19 00:53:15;;;;;;;2.53;2.30;;;;;;;;;;5092592;28;20257;-80
2021/12/19 00:55:44;;;;;;;3.63;2.47;;;;;;;;;;5092635;28;20196;-80
2021/12/19 00:58:11;;;;;;;3.03;2.73;;;;;;;;;;5092642;28;20554;-81
2021/12/19 01:00:39;;;;;;;3.30;2.60;;;;;;;;;;5092522;28;20203;-80
2021/12/19 01:03:07;;;;;;;2.40;2.20;;;;;;;;;;5092594;28;20315;-80
2021/12/19 01:05:39;;;;;;;2.63;2.23;;;;;;;;;;5092335;28;20649;-80
2021/12/19 01:08:07;;;;;;;2.50;2.30;;;;;;;;;;5092522;28;20629;-79
2021/12/19 01:10:35;;;;;;;3.23;2.17;;;;;;;;;;5092649;28;20204;-80
2021/12/19 01:13:04;;;;;;;3.13;2.40;;;;;;;;;;5093931;28;20204;-79
2021/12/19 01:15:32;;;;;;;2.30;2.10;;;;;;;;;;5098054;28;20204;-80
2021/12/19 01:17:59;;;;;;;1.80;1.70;;;;;;;;;;5103568;28;20200;-80
2021/12/19 01:20:28;;;;;;;2.50;2.10;;;;;;;;;;5092247;28;20192;-80
2021/12/19 01:22:56;;;;;;;2.63;2.10;;;;;;;;;;5092330;28;20612;-80
2021/12/19 01:25:23;;;;;;;2.50;2.30;;;;;;;;;;5092071;28;20226;-79
2021/12/19 01:27:50;;;;;;;3.47;2.40;;;;;;;;;;5092034;28;20196;-79
2021/12/19 01:30:19;;;;;;;2.80;2.40;;;;;;;;;;5092151;28;20692;-80
2021/12/19 01:32:47;;;;;;;9.47;6.00;;;;;;;;;;5092033;28;20257;-79
2021/12/19 01:35:16;;;;;;;9.77;5.97;;;;;;;;;;5092045;28;20235;-79
2021/12/19 01:37:43;;;;;;;6.93;5.63;;;;;;;;;;5091988;28;20203;-79
2021/12/19 01:40:12;;;;;;;5.83;5.17;;;;;;;;;;5092374;28;20201;-79
2021/12/19 01:42:42;;;;;;;6.90;4.47;;;;;;;;;;5091919;28;20197;-79
2021/12/19 01:45:12;;;;;;;6.03;4.60;;;;;;;;;;5091750;28;20262;-79
2021/12/19 01:47:42;;;;;;;5.47;4.83;;;;;;;;;;5093463;28;20192;-79
2021/12/19 01:50:11;;;;;;;7.70;4.97;;;;;;;;;;5091719;28;20726;-79
2021/12/19 01:52:38;;;;;;;5.33;3.87;;;;;;;;;;5091874;28;20575;-79
2021/12/19 01:55:06;;;;;;;4.83;4.13;;;;;;;;;;5091927;28;20192;-79
2021/12/19 01:57:34;;;;;;;3.77;3.30;;;;;;;;;;5091827;28;20204;-79
2021/12/19 02:00:02;;;;;;;2.87;2.67;;;;;;;;;;5091932;28;20700;-79
2021/12/19 02:02:29;;;;;;;3.23;2.97;;;;;;;;;;5092130;28;20192;-78
2021/12/19 02:04:58;;;;;;;3.13;2.83;;;;;;;;;;5091544;28;20207;-79
2021/12/19 02:07:26;;;;;;;2.80;2.60;;;;;;;;;;5091624;28;20245;-79
2021/12/19 02:09:53;;;;;;;3.70;3.30;;;;;;;;;;5091861;28;20195;-78
2021/12/19 02:12:20;;;;;;;2.93;2.73;;;;;;;;;;5091668;28;20227;-80
2021/12/19 02:14:48;;;;;;;3.43;2.90;;;;;;;;;;5091830;28;20200;-78
2021/12/19 02:17:15;;;;;;;3.50;2.97;;;;;;;;;;5091730;28;20557;-78
2021/12/19 02:19:42;;;;;;;3.67;3.37;;;;;;;;;;5091677;28;20208;-78
2021/12/19 02:22:11;;;;;;;4.43;4.03;;;;;;;;;;5091587;28;20284;-79
2021/12/19 02:24:38;;;;;;;4.30;3.90;;;;;;;;;;5091727;28;20246;-79
2021/12/19 02:27:06;;;;;;;3.77;3.40;;;;;;;;;;5090994;28;20277;-78
2021/12/19 02:29:33;;;;;;;5.77;3.83;;;;;;;;;;5091592;28;20193;-78
2021/12/19 02:32:01;;;;;;;5.67;4.10;;;;;;;;;;5093858;28;20279;-79
2021/12/19 02:34:32;;;;;;;3.87;3.57;;;;;;;;;;5095566;28;20204;-79
2021/12/19 02:37:05;;;;;;;3.53;2.93;;;;;;;;;;5095441;28;20196;-78
2021/12/19 02:50:28;;;;;;;8.50;7.57;;;;;;;;;;5095581;28;20206;-79
2021/12/19 02:52:55;;;;;;;8.37;7.23;;;;;;;;;;5094978;28;20200;-78
2021/12/19 02:55:24;;;;;;;8.77;5.80;;;;;;;;;;5095303;28;20196;-78
2021/12/19 02:57:51;;;;;;;11.93;7.40;;;;;;;;;;5094829;28;20192;-78
2021/12/19 03:00:21;;;;;;;6.60;4.90;;;;;;;;;;5094875;28;20236;-79
2021/12/19 03:02:49;;;;;;;4.97;4.13;;;;;;;;;;5094610;28;20197;-78
2021/12/19 03:05:16;;;;;;;4.83;3.50;;;;;;;;;;5094755;28;20200;-78
2021/12/19 03:07:44;;;;;;;6.47;5.33;;;;;;;;;;5094499;28;20232;-78
2021/12/19 03:13:26;;;;;;;9.00;7.17;;;;;;;;;;5032501;28;20285;-78
2021/12/19 03:18:39;;;;;;;7.13;5.00;;;;;;;;;;5094698;28;20176;-78
2021/12/19 03:21:12;;;;;;;5.47;4.83;;;;;;;;;;5094711;28;20254;-78
2021/12/19 03:23:39;;;;;;;8.50;6.00;;;;;;;;;;5094529;28;20214;-78
2021/12/19 03:26:07;;;;;;;5.97;5.30;;;;;;;;;;5094116;28;20223;-78
2021/12/19 03:28:36;;;;;;;4.77;3.63;;;;;;;;;;5094622;28;20193;-78
2021/12/19 03:31:03;;;;;;;4.37;3.97;;;;;;;;;;5094438;28;20222;-77
2021/12/19 03:33:31;;;;;;;4.47;3.43;;;;;;;;;;5094284;28;20206;-78
2021/12/19 03:35:58;;;;;;;3.30;3.00;;;;;;;;;;5094143;28;20201;-78
2021/12/19 03:38:26;;;;;;;5.23;4.00;;;;;;;;;;5094141;28;20283;-78
2021/12/19 03:41:08;;;;;;;7.23;5.27;;;;;;;;;;5094309;28;20718;-78
2021/12/19 03:43:37;;;;;;;9.83;6.27;;;;;;;;;;5092829;28;20185;-78
2021/12/19 03:46:04;;;;;;;3.30;3.00;;;;;;;;;;5093898;28;20277;-78
2021/12/19 03:48:32;;;;;;;6.13;3.73;;;;;;;;;;5093913;28;20759;-78
2021/12/19 03:50:59;;;;;;;9.47;7.70;;;;;;;;;;5093835;28;20192;-78
2021/12/19 03:53:26;;;;;;;16.70;10.23;;;;;;;;;;5094185;28;20220;-78
2021/12/19 03:55:54;;;;;;;12.97;9.80;;;;;;;;;;5093822;28;20317;-78
2021/12/19 03:58:22;;;;;;;14.50;12.10;;;;;;;;;;5094112;28;20631;-78
2021/12/19 04:00:53;;;;;;;29.77;21.90;;;;;;;;;;5093836;28;20250;-78
2021/12/19 04:03:21;;;;;;;21.73;14.70;;;;;;;;;;5093663;28;20630;-78
2021/12/19 04:05:49;;;;;;;37.33;25.60;;;;;;;;;;5093808;28;20220;-78
2021/12/19 04:08:18;;;;;;;28.80;21.30;;;;;;;;;;5093253;28;20236;-78
2021/12/19 04:10:47;;;;;;;90.77;53.93;;;;;;;;;;5093528;28;20625;-78
2021/12/19 04:13:14;;;;;;;42.23;26.93;;;;;;;;;;5093704;28;20204;-78
2021/12/19 04:15:42;;;;;;;31.07;22.07;;;;;;;;;;5093421;28;20250;-78
2021/12/19 04:18:10;;;;;;;47.70;29.57;;;;;;;;;;5093754;28;20228;-78
2021/12/19 04:20:38;;;;;;;26.47;17.77;;;;;;;;;;5093315;28;20569;-77
2021/12/19 04:23:05;;;;;;;26.93;15.13;;;;;;;;;;5093232;28;20207;-77
2021/12/19 04:25:33;;;;;;;15.10;10.40;;;;;;;;;;5093174;28;20192;-78
2021/12/19 04:28:00;;;;;;;11.93;9.60;;;;;;;;;;5093041;28;20196;-78
2021/12/19 04:30:28;;;;;;;116.20;49.47;;;;;;;;;;5093472;28;20304;-78
2021/12/19 04:33:00;;;;;;;39.20;20.37;;;;;;;;;;5093079;28;20197;-78
2021/12/19 04:35:33;;;;;;;61.53;31.67;;;;;;;;;;5093040;28;20188;-78
2021/12/19 04:40:52;;;;;;;25.70;16.07;;;;;;;;;;5059537;28;20231;-78
2021/12/19 04:52:14;;;;;;;101.50;56.50;;;;;;;;;;5093132;28;20180;-79
2021/12/19 04:54:56;;;;;;;100.53;51.73;;;;;;;;;;5092639;28;20267;-79
2021/12/19 04:57:32;;;;;;;18.87;11.40;;;;;;;;;;5092616;28;20219;-78
2021/12/19 05:00:04;;;;;;;8.77;6.43;;;;;;;;;;5093024;28;20729;-78
2021/12/19 05:02:47;;;;;;;4.97;3.43;;;;;;;;;;5092569;28;20280;-78
2021/12/19 05:05:43;;;;;;;3.40;3.10;;;;;;;;;;5092840;28;20567;-79
2021/12/19 05:14:09;;;;;;;4.00;2.87;;;;;;;;;;5058929;28;20200;-78
2021/12/19 05:16:39;;;;;;;3.20;2.60;;;;;;;;;;5092497;28;20195;-78
2021/12/19 05:19:17;;;;;;;4.10;2.83;;;;;;;;;;5092899;28;20200;-78
2021/12/19 05:21:44;;;;;;;3.43;2.80;;;;;;;;;;5092167;28;20191;-78
2021/12/19 05:24:44;;;;;;;2.60;2.40;;;;;;;;;;5092495;28;20196;-78
2021/12/19 05:27:13;;;;;;;5.87;5.10;;;;;;;;;;5101360;28;20230;-78
2021/12/19 05:29:41;;;;;;;6.47;5.87;;;;;;;;;;5112844;28;20213;-79
2021/12/19 05:32:09;;;;;;;3.93;3.53;;;;;;;;;;5095144;28;20283;-79
2021/12/19 05:34:37;;;;;;;3.43;3.13;;;;;;;;;;5092032;28;20200;-78
2021/12/19 05:45:20;;;;;;;3.10;2.80;;;;;;;;;;5092084;28;20184;-79
2021/12/19 05:47:50;;;;;;;22.37;13.17;;;;;;;;;;5108068;28;20246;-79
2021/12/19 05:50:19;;;;;;;29.07;19.33;;;;;;;;;;5112224;28;20235;-79
2021/12/19 05:52:47;;;;;;;21.53;16.17;;;;;;;;;;5112657;28;20205;-79
2021/12/19 05:55:15;;;;;;;9.87;8.20;;;;;;;;;;5111778;28;20294;-79
2021/12/19 05:57:43;;;;;;;8.33;5.93;;;;;;;;;;5112112;28;20203;-78
2021/12/19 06:00:13;;;;;;;4.23;3.83;;;;;;;;;;5112261;28;20256;-79
2021/12/19 06:02:41;;;;;;;4.90;4.33;;;;;;;;;;5111982;28;20188;-78
2021/12/19 06:05:09;;;;;;;6.27;4.80;;;;;;;;;;5112059;28;20195;-79
2021/12/19 06:07:36;;;;;;;5.57;4.77;;;;;;;;;;5114984;28;20276;-78
2021/12/19 06:10:05;;;;;;;5.87;4.73;;;;;;;;;;5116187;28;20284;-78
2021/12/19 06:12:34;;;;;;;24.40;13.37;;;;;;;;;;5116114;28;20199;-78
2021/12/19 06:15:01;;;;;;;63.53;38.83;;;;;;;;;;5116125;28;20260;-78
2021/12/19 06:17:29;;;;;;;51.40;32.00;;;;;;;;;;5115977;28;20192;-78
2021/12/19 06:19:56;;;;;;;18.00;13.97;;;;;;;;;;5116770;28;20635;-78
2021/12/19 06:22:23;;;;;;;11.70;8.90;;;;;;;;;;5116242;28;20191;-78
2021/12/19 06:24:50;;;;;;;22.20;17.30;;;;;;;;;;5116104;28;20205;-78
2021/12/19 06:27:18;;;;;;;20.20;17.10;;;;;;;;;;5114771;27;20255;-78
2021/12/19 06:29:46;;;;;;;27.40;21.17;;;;;;;;;;5113887;28;20191;-78
2021/12/19 06:32:14;;;;;;;20.63;14.40;;;;;;;;;;5114670;28;20244;-78
2021/12/19 06:34:41;;;;;;;12.90;8.70;;;;;;;;;;5115281;28;20196;-79
2021/12/19 06:37:10;;;;;;;8.03;6.47;;;;;;;;;;5114792;28;20219;-78
2021/12/19 06:39:38;;;;;;;9.70;8.20;;;;;;;;;;5114739;28;20195;-78
2021/12/19 06:42:06;;;;;;;18.27;13.00;;;;;;;;;;5114721;28;20231;-79
2021/12/19 06:44:33;;;;;;;21.43;15.20;;;;;;;;;;5113641;28;20222;-79
2021/12/19 06:47:03;;;;;;;19.93;14.03;;;;;;;;;;5114293;28;20699;-79
2021/12/19 06:49:30;;;;;;;25.20;16.90;;;;;;;;;;5114767;28;20614;-79
2021/12/19 06:51:58;;;;;;;29.40;19.10;;;;;;;;;;5106146;28;20219;-79
2021/12/19 06:54:25;;;;;;;17.67;11.90;;;;;;;;;;5093950;28;20749;-79
2021/12/19 06:56:52;;;;;;;40.77;17.03;;;;;;;;;;5094135;28;20196;-79
2021/12/19 06:59:20;;;;;;;26.83;13.80;;;;;;;;;;5103336;28;20207;-79
2021/12/19 07:01:47;;;;;;;17.70;10.60;;;;;;;;;;5114702;28;20207;-79
2021/12/19 07:04:16;;;;;;;62.57;24.60;;;;;;;;;;5114027;28;20237;-79
2021/12/19 07:06:43;;;;;;;24.10;12.43;;;;;;;;;;5114209;28;20227;-80
2021/12/19 07:09:10;;;;;;;8.67;6.07;;;;;;;;;;5114038;28;20267;-80
2021/12/19 07:11:38;;;;;;;10.70;8.50;;;;;;;;;;5113577;28;20195;-80
2021/12/19 07:14:05;;;;;;;9.33;6.27;;;;;;;;;;5113896;28;20199;-80
2021/12/19 07:16:32;;;;;;;7.00;5.10;;;;;;;;;;5114187;28;20672;-81
2021/12/19 07:19:00;;;;;;;6.17;5.03;;;;;;;;;;5113485;28;20260;-80
2021/12/19 07:21:29;;;;;;;5.60;4.57;;;;;;;;;;5113765;27;20628;-80
2021/12/19 07:23:57;;;;;;;5.17;4.10;;;;;;;;;;5113348;28;20191;-80
2021/12/19 07:26:24;;;;;;;9.97;5.67;;;;;;;;;;5113596;28;20634;-80
2021/12/19 07:28:52;;;;;;;11.07;5.00;;;;;;;;;;5113976;27;20195;-80
2021/12/19 07:31:19;;;;;;;19.10;11.90;;;;;;;;;;5113985;28;20200;-81
2021/12/19 07:33:47;;;;;;;6.30;5.07;;;;;;;;;;5113596;28;20252;-81
2021/12/19 07:36:17;;;;;;;5.13;3.50;;;;;;;;;;5103574;28;20200;-81
2021/12/19 07:38:53;;;;;;;3.37;3.03;;;;;;;;;;5098630;28;20207;-82
2021/12/19 07:41:20;;;;;;;4.23;2.87;;;;;;;;;;5113475;28;20180;-81
2021/12/19 07:43:48;;;;;;;5.40;3.47;;;;;;;;;;5107250;28;20219;-81
2021/12/19 07:46:15;;;;;;;5.40;4.53;;;;;;;;;;5093255;28;20230;-82
2021/12/19 07:48:42;;;;;;;3.77;3.43;;;;;;;;;;5093060;28;20216;-81
2021/12/19 07:51:09;;;;;;;3.77;3.37;;;;;;;;;;5092402;28;20748;-83
2021/12/19 07:53:37;;;;;;;3.13;2.83;;;;;;;;;;5092784;28;20281;-83
2021/12/19 07:56:06;;;;;;;5.50;4.07;;;;;;;;;;5109204;28;20207;-83
2021/12/19 07:58:33;;;;;;;6.07;4.37;;;;;;;;;;5112991;28;20244;-82
2021/12/19 08:01:01;;;;;;;11.17;8.00;;;;;;;;;;5113050;28;20203;-83
2021/12/19 08:03:28;;;;;;;7.50;6.77;;;;;;;;;;5112676;28;20674;-83
2021/12/19 08:05:55;;;;;;;5.67;5.07;;;;;;;;;;5113425;28;20802;-84
2021/12/19 08:08:26;;;;;;;3.87;3.23;;;;;;;;;;5109242;28;20231;-83
2021/12/19 08:13:40;;;;;;;5.30;4.70;;;;;;;;;;5113246;28;20183;-84
2021/12/19 08:16:07;;;;;;;5.50;5.00;;;;;;;;;;5112831;28;20225;-83
2021/12/19 08:18:35;;;;;;;2.43;2.23;;;;;;;;;;5112775;28;20686;-83
2021/12/19 08:21:03;;;;;;;2.77;2.57;;;;;;;;;;5113010;28;20200;-84
2021/12/19 08:23:30;;;;;;;5.83;5.23;;;;;;;;;;5112898;28;20236;-83
2021/12/19 08:25:58;;;;;;;6.07;4.57;;;;;;;;;;5112686;28;20191;-83
2021/12/19 08:28:25;;;;;;;7.17;5.70;;;;;;;;;;5112134;28;20227;-83
2021/12/19 08:30:54;;;;;;;2.77;2.50;;;;;;;;;;5106704;28;20198;-82
2021/12/19 08:33:21;;;;;;;3.00;2.70;;;;;;;;;;5106696;28;20747;-83
2021/12/19 08:35:48;;;;;;;3.17;2.83;;;;;;;;;;5109223;28;20211;-82
2021/12/19 08:38:16;;;;;;;5.47;3.50;;;;;;;;;;5112373;27;20746;-83
2021/12/19 08:40:44;;;;;;;4.07;3.50;;;;;;;;;;5112565;28;20211;-82
2021/12/19 08:43:11;;;;;;;3.93;3.63;;;;;;;;;;5112130;28;20211;-83
2021/12/19 08:45:39;;;;;;;5.73;4.60;;;;;;;;;;5112149;28;20320;-82
2021/12/19 08:48:08;;;;;;;4.93;3.90;;;;;;;;;;5111928;28;20699;-82
2021/12/19 08:50:36;;;;;;;4.23;3.83;;;;;;;;;;5112248;28;20655;-82
2021/12/19 08:53:03;;;;;;;4.20;3.83;;;;;;;;;;5111794;28;20277;-81
2021/12/19 08:55:30;;;;;;;3.23;2.93;;;;;;;;;;5111680;28;20253;-82
2021/12/19 08:57:58;;;;;;;5.13;3.07;;;;;;;;;;5111860;28;20244;-82
2021/12/19 09:00:25;;;;;;;4.17;3.10;;;;;;;;;;5111909;28;20203;-81
2021/12/19 09:02:55;;;;;;;3.27;2.97;;;;;;;;;;5111724;28;20244;-81
2021/12/19 09:05:25;;;;;;;4.80;2.67;;;;;;;;;;5111903;28;20199;-82
2021/12/19 09:07:52;;;;;;;10.70;4.00;;;;;;;;;;5111520;28;20326;-82
2021/12/19 09:10:20;;;;;;;2.67;2.10;;;;;;;;;;5111605;28;20196;-82
2021/12/19 09:12:48;;;;;;;3.73;2.93;;;;;;;;;;5106690;28;20578;-82
2021/12/19 09:15:15;;;;;;;4.23;3.10;;;;;;;;;;5091272;28;20196;-82
2021/12/19 09:17:42;;;;;;;4.47;3.00;;;;;;;;;;5091182;28;20228;-82
2021/12/19 09:20:11;;;;;;;2.60;2.40;;;;;;;;;;5091108;28;20199;-82
2021/12/19 09:22:41;;;;;;;3.20;2.87;;;;;;;;;;5091199;28;20255;-82
2021/12/19 09:25:09;;;;;;;3.70;2.57;;;;;;;;;;5091565;28;20628;-82
2021/12/19 09:27:36;;;;;;;2.73;2.53;;;;;;;;;;5093810;28;20230;-82
2021/12/19 09:30:05;;;;;;;4.20;3.13;;;;;;;;;;5093963;28;20231;-82
2021/12/19 09:32:32;;;;;;;2.73;2.53;;;;;;;;;;5110740;28;20203;-82
2021/12/19 09:34:59;;;;;;;3.07;2.37;;;;;;;;;;5099437;28;20196;-82
2021/12/19 09:37:27;;;;;;;3.23;3.00;;;;;;;;;;5102797;28;20199;-82
2021/12/19 09:39:56;;;;;;;3.43;2.57;;;;;;;;;;5111245;28;20570;-82
2021/12/19 09:42:33;;;;;;;3.37;2.30;;;;;;;;;;5111305;28;20729;-82
2021/12/19 09:45:02;;;;;;;3.10;2.27;;;;;;;;;;5111375;28;20755;-81
2021/12/19 09:47:29;;;;;;;4.10;2.80;;;;;;;;;;5108673;28;20654;-82
2021/12/19 09:49:57;;;;;;;2.57;2.37;;;;;;;;;;5109226;28;20679;-82
2021/12/19 09:52:25;;;;;;;2.10;1.90;;;;;;;;;;5111578;28;20615;-83
2021/12/19 09:54:53;;;;;;;2.60;2.40;;;;;;;;;;5111447;28;20658;-83
2021/12/19 09:57:21;;;;;;;3.37;3.07;;;;;;;;;;5111459;28;20242;-83
2021/12/19 09:59:49;;;;;;;6.00;2.77;;;;;;;;;;5111130;28;20238;-83
2021/12/19 10:02:16;;;;;;;3.57;2.63;;;;;;;;;;5110808;28;20274;-82
2021/12/19 10:04:45;;;;;;;3.43;2.00;;;;;;;;;;5110766;28;20202;-82
2021/12/19 10:07:15;;;;;;;3.60;2.40;;;;;;;;;;5099726;28;20253;-83
2021/12/19 10:09:55;;;;;;;2.00;1.80;;;;;;;;;;5090673;28;20200;-82
2021/12/19 10:12:38;;;;;;;2.50;2.30;;;;;;;;;;5090727;28;20835;-83
2021/12/19 10:15:08;;;;;;;3.43;2.50;;;;;;;;;;5090509;28;20180;-82
2021/12/19 10:17:36;;;;;;;3.17;2.63;;;;;;;;;;5094245;28;20208;-82
2021/12/19 10:20:05;;;;;;;2.90;2.70;;;;;;;;;;5111281;28;20579;-82
2021/12/19 10:22:34;;;;;;;3.13;2.77;;;;;;;;;;5111294;28;20227;-82
2021/12/19 10:25:14;;;;;;;3.03;2.77;;;;;;;;;;5095949;28;20200;-82
2021/12/19 10:27:44;;;;;;;2.63;2.43;;;;;;;;;;5110081;28;20246;-82
2021/12/19 10:30:13;;;;;;;4.27;2.97;;;;;;;;;;5110873;28;20216;-82
2021/12/19 10:32:52;;;;;;;3.07;2.77;;;;;;;;;;5099486;28;20291;-83
2021/12/19 10:35:21;;;;;;;3.00;2.13;;;;;;;;;;5090758;28;20291;-83
2021/12/19 10:37:48;;;;;;;2.30;2.10;;;;;;;;;;5090402;28;20188;-83
2021/12/19 10:40:17;;;;;;;2.77;2.57;;;;;;;;;;5090136;28;20196;-82
2021/12/19 10:42:50;;;;;;;3.83;3.30;;;;;;;;;;5093287;28;20246;-83
2021/12/19 10:45:35;;;;;;;6.57;4.90;;;;;;;;;;5105776;28;20229;-83
2021/12/19 10:48:30;;;;;;;2.70;2.43;;;;;;;;;;5110782;28;20246;-83
2021/12/19 10:51:04;;;;;;;3.97;2.80;;;;;;;;;;5110751;28;20190;-83
2021/12/19 10:53:37;;;;;;;2.60;2.37;;;;;;;;;;5113377;28;20266;-82
2021/12/19 10:56:09;;;;;;;2.77;2.57;;;;;;;;;;5114422;28;20215;-83
2021/12/19 10:58:42;;;;;;;3.57;3.20;;;;;;;;;;5114858;28;20180;-83
2021/12/19 11:01:18;;;;;;;3.60;3.13;;;;;;;;;;5113442;28;20740;-83
2021/12/19 11:04:03;;;;;;;3.37;2.50;;;;;;;;;;5109567;28;20629;-83
2021/12/19 11:06:34;;;;;;;2.40;2.20;;;;;;;;;;5103714;28;20240;-82
2021/12/19 11:09:05;;;;;;;4.60;3.50;;;;;;;;;;5093406;28;20232;-82
2021/12/19 11:11:42;;;;;;;3.90;3.50;;;;;;;;;;5093971;28;20189;-82
2021/12/19 11:14:13;;;;;;;2.47;2.27;;;;;;;;;;5093846;28;20595;-82
2021/12/19 11:16:40;;;;;;;3.70;2.60;;;;;;;;;;5093578;28;20188;-82
2021/12/19 11:19:08;;;;;;;3.20;3.00;;;;;;;;;;5093096;28;20730;-82
2021/12/19 11:21:36;;;;;;;2.70;2.13;;;;;;;;;;5093446;28;20254;-82
2021/12/19 11:24:06;;;;;;;2.40;2.20;;;;;;;;;;5093320;28;20651;-82
2021/12/19 11:26:34;;;;;;;3.10;2.80;;;;;;;;;;5093713;28;20200;-82
2021/12/19 11:29:02;;;;;;;3.03;2.70;;;;;;;;;;5093110;28;20224;-82
2021/12/19 11:31:32;;;;;;;3.07;2.77;;;;;;;;;;5093580;28;20275;-83
2021/12/19 11:34:15;;;;;;;3.23;2.17;;;;;;;;;;5092905;28;20279;-82
2021/12/19 11:36:46;;;;;;;2.20;2.03;;;;;;;;;;5093474;28;20180;-82
2021/12/19 11:39:14;;;;;;;3.20;2.20;;;;;;;;;;5093129;28;20231;-82
2021/12/19 11:42:01;;;;;;;2.10;1.90;;;;;;;;;;5106585;28;20199;-82
2021/12/19 11:44:33;;;;;;;2.57;2.37;;;;;;;;;;5113428;28;20190;-83
2021/12/19 11:47:07;;;;;;;2.77;2.57;;;;;;;;;;5113779;28;20282;-85
2021/12/19 11:49:34;;;;;;;2.50;2.17;;;;;;;;;;5113710;28;20596;-83
2021/12/19 11:52:25;;;;;;;2.97;2.37;;;;;;;;;;5113870;28;20196;-82
2021/12/19 11:55:24;;;;;;;4.57;3.30;;;;;;;;;;5113257;28;20195;-83
2021/12/19 11:58:36;;;;;;;5.00;3.30;;;;;;;;;;5106019;28;20195;-83
2021/12/19 12:01:06;;;;;;;3.80;2.53;;;;;;;;;;5075432;28;20192;-83
2021/12/19 12:03:57;;;;;;;3.33;1.90;;;;;;;;;;5112290;28;20184;-84
2021/12/19 12:06:39;;;;;;;4.67;2.80;;;;;;;;;;5113017;28;20188;-83
2021/12/19 12:09:28;;;;;;;2.53;2.13;;;;;;;;;;5112596;28;20270;-82
2021/12/19 12:12:11;;;;;;;2.93;2.60;;;;;;;;;;5112238;28;20195;-83
2021/12/19 12:14:42;;;;;;;4.87;4.43;;;;;;;;;;5112783;28;20190;-82
2021/12/19 12:17:14;;;;;;;3.37;2.87;;;;;;;;;;5105819;28;20196;-82
2021/12/19 12:19:44;;;;;;;2.30;2.10;;;;;;;;;;5092390;28;20184;-83
2021/12/19 12:22:32;;;;;;;2.50;2.13;;;;;;;;;;5110697;28;20196;-83
2021/12/19 12:25:11;;;;;;;3.77;2.60;;;;;;;;;;5112261;28;20274;-82
2021/12/19 12:27:40;;;;;;;4.30;3.30;;;;;;;;;;5112891;28;20617;-82
2021/12/19 12:30:09;;;;;;;4.97;4.47;;;;;;;;;;5112315;28;20259;-82
2021/12/19 12:32:37;;;;;;;3.40;3.10;;;;;;;;;;5108437;28;20200;-82
2021/12/19 12:35:07;;;;;;;3.20;2.77;;;;;;;;;;5092179;28;20661;-83
2021/12/19 12:37:34;;;;;;;2.80;2.60;;;;;;;;;;5091757;28;20184;-82
2021/12/19 12:40:19;;;;;;;2.40;2.20;;;;;;;;;;5092076;28;20665;-83
2021/12/19 12:43:01;;;;;;;5.93;3.53;;;;;;;;;;5091853;28;20242;-82
2021/12/19 12:45:30;;;;;;;4.00;2.87;;;;;;;;;;5092023;28;20275;-82
2021/12/19 12:47:58;;;;;;;3.07;2.70;;;;;;;;;;5092424;28;20219;-82
2021/12/19 12:50:27;;;;;;;5.43;3.63;;;;;;;;;;5102540;28;20199;-82
2021/12/19 12:52:58;;;;;;;2.60;2.20;;;;;;;;;;5112331;28;20589;-83
2021/12/19 12:55:26;;;;;;;13.07;7.80;;;;;;;;;;5112013;28;20275;-83
2021/12/19 12:57:53;;;;;;;5.40;4.90;;;;;;;;;;5095445;28;20261;-83
2021/12/19 13:00:21;;;;;;;2.70;2.50;;;;;;;;;;5091825;28;20708;-83
2021/12/19 13:03:08;;;;;;;3.03;2.27;;;;;;;;;;5091953;28;20235;-82
2021/12/19 13:05:37;;;;;;;3.63;3.00;;;;;;;;;;5091476;28;20233;-83
2021/12/19 13:08:05;;;;;;;3.40;2.97;;;;;;;;;;5091380;28;20236;-83
2021/12/19 13:10:32;;;;;;;11.50;8.57;;;;;;;;;;5091372;28;20200;-83
2021/12/19 13:13:08;;;;;;;3.33;2.87;;;;;;;;;;5091498;28;20196;-82
2021/12/19 13:15:36;;;;;;;4.90;4.20;;;;;;;;;;5091078;28;20697;-82
2021/12/19 13:18:03;;;;;;;4.70;3.97;;;;;;;;;;5091285;28;20228;-83
2021/12/19 13:20:33;;;;;;;5.67;4.50;;;;;;;;;;5091267;28;20200;-82
2021/12/19 13:23:03;;;;;;;20.83;12.30;;;;;;;;;;5091643;28;20212;-82
2021/12/19 13:25:38;;;;;;;19.63;10.40;;;;;;;;;;5091461;28;20200;-84
2021/12/19 13:28:08;;;;;;;3.00;2.70;;;;;;;;;;5091519;28;20215;-84
2021/12/19 13:30:37;;;;;;;3.70;2.83;;;;;;;;;;5090846;28;20626;-84
2021/12/19 13:33:07;;;;;;;6.17;3.67;;;;;;;;;;5091476;28;20298;-84
2021/12/19 13:35:36;;;;;;;3.60;3.13;;;;;;;;;;5091316;28;20192;-84
2021/12/19 13:38:07;;;;;;;5.27;3.03;;;;;;;;;;5091049;28;20207;-84
2021/12/19 13:40:35;;;;;;;5.13;3.50;;;;;;;;;;5098846;28;20199;-83
2021/12/19 13:43:05;;;;;;;4.50;3.87;;;;;;;;;;5110961;28;20716;-83
2021/12/19 13:45:56;;;;;;;4.87;4.03;;;;;;;;;;5111309;28;20191;-84
2021/12/19 13:48:28;;;;;;;17.90;9.93;;;;;;;;;;5111566;28;20683;-84
2021/12/19 13:50:58;;;;;;;13.83;8.53;;;;;;;;;;5111326;28;20179;-84
2021/12/19 13:53:29;;;;;;;4.43;3.37;;;;;;;;;;5111242;28;20252;-84
2021/12/19 13:55:59;;;;;;;15.43;9.60;;;;;;;;;;5110973;28;20183;-84
2021/12/19 13:58:29;;;;;;;17.33;11.20;;;;;;;;;;5111736;28;20651;-84
2021/12/19 14:00:57;;;;;;;8.97;7.57;;;;;;;;;;5111925;28;20206;-81
2021/12/19 14:03:38;;;;;;;8.33;6.80;;;;;;;;;;5110997;28;20195;-81
2021/12/19 14:06:06;;;;;;;12.40;9.50;;;;;;;;;;5112060;28;20681;-85
2021/12/19 14:08:36;;;;;;;30.30;21.30;;;;;;;;;;5111829;28;20242;-82
2021/12/19 14:11:24;;;;;;;24.60;18.53;;;;;;;;;;5112198;28;20217;-82
2021/12/19 14:14:08;;;;;;;23.93;18.23;;;;;;;;;;5107619;28;20290;-82
2021/12/19 14:16:38;;;;;;;27.57;19.83;;;;;;;;;;5112046;28;20219;-82
2021/12/19 14:19:23;;;;;;;16.77;11.33;;;;;;;;;;5112587;28;20195;-82
2021/12/19 14:21:51;;;;;;;16.23;12.17;;;;;;;;;;5112135;28;20252;-82
2021/12/19 14:24:27;;;;;;;11.10;9.67;;;;;;;;;;5112028;28;20191;-82
2021/12/19 14:27:07;;;;;;;8.67;6.77;;;;;;;;;;5112235;28;20187;-82
2021/12/19 14:29:35;;;;;;;9.23;6.93;;;;;;;;;;5116177;28;20207;-82
2021/12/19 14:32:08;;;;;;;9.70;7.70;;;;;;;;;;5116234;28;20629;-82
2021/12/19 14:34:38;;;;;;;8.33;6.53;;;;;;;;;;5115841;28;20184;-82
2021/12/19 14:37:22;;;;;;;6.53;5.37;;;;;;;;;;5115792;28;20191;-82
2021/12/19 14:40:14;;;;;;;5.53;4.93;;;;;;;;;;5115753;28;20226;-82
2021/12/19 14:42:43;;;;;;;8.83;6.63;;;;;;;;;;5111379;28;20252;-82
2021/12/19 14:45:15;;;;;;;7.70;6.33;;;;;;;;;;5115585;28;20274;-82
2021/12/19 14:47:44;;;;;;;8.77;7.83;;;;;;;;;;5115869;28;20191;-82
2021/12/19 14:50:21;;;;;;;8.50;7.10;;;;;;;;;;5115776;28;20406;-82
2021/12/19 14:53:09;;;;;;;7.93;6.83;;;;;;;;;;5115586;28;20248;-82
2021/12/19 14:55:41;;;;;;;12.00;9.13;;;;;;;;;;5115510;28;20191;-81
2021/12/19 14:58:08;;;;;;;10.07;8.00;;;;;;;;;;5115355;28;20276;-82
2021/12/19 15:00:37;;;;;;;9.40;7.00;;;;;;;;;;5115275;28;20195;-81
2021/12/19 15:03:05;;;;;;;6.83;6.13;;;;;;;;;;5115952;28;20196;-83
2021/12/19 15:05:33;;;;;;;11.33;6.60;;;;;;;;;;5115863;28;20199;-82
2021/12/19 15:08:05;;;;;;;19.33;10.37;;;;;;;;;;5115252;28;20697;-83
2021/12/19 15:10:32;;;;;;;11.03;8.27;;;;;;;;;;5115220;28;20208;-83
2021/12/19 15:13:01;;;;;;;15.07;12.07;;;;;;;;;;5115409;28;20227;-83
2021/12/19 15:15:28;;;;;;;14.03;11.07;;;;;;;;;;5115642;28;20568;-83
2021/12/19 15:17:56;;;;;;;8.83;7.03;;;;;;;;;;5114350;28;20191;-82
2021/12/19 15:20:23;;;;;;;18.63;13.33;;;;;;;;;;5108398;28;20204;-82
2021/12/19 15:22:50;;;;;;;9.83;7.20;;;;;;;;;;5094912;28;20253;-83
2021/12/19 15:25:18;;;;;;;7.27;6.50;;;;;;;;;;5094682;28;20201;-83
2021/12/19 15:27:45;;;;;;;11.20;7.00;;;;;;;;;;5094731;28;20200;-83
2021/12/19 15:30:16;;;;;;;14.77;10.70;;;;;;;;;;5094315;28;20220;-83
2021/12/19 15:32:43;;;;;;;9.03;7.23;;;;;;;;;;5097734;28;20575;-83
2021/12/19 15:35:12;;;;;;;20.80;13.67;;;;;;;;;;5102331;28;20287;-83
2021/12/19 15:37:39;;;;;;;34.17;19.53;;;;;;;;;;5115079;28;20227;-83
2021/12/19 15:40:09;;;;;;;31.53;20.87;;;;;;;;;;5114535;28;20196;-83
2021/12/19 15:42:36;;;;;;;12.33;9.37;;;;;;;;;;5103440;28;20200;-83
2021/12/19 15:45:04;;;;;;;12.07;8.13;;;;;;;;;;5109134;28;20204;-83